Grand Junction Regional Airport
KGJT : now visible

Airfield :











YOU CAN JOIN US ON...

 
LOGIN :

Register | Disclaimer

   EN    FR    IT 

 









Legend :    VFR   Marginal VFR   IFR   Intensive IFR   Very Intensive IFR
Visi :
Ceiling :
>= 8 km
>= 3000ft
5 to 8 km
1000 to 3000 ft
1500m to 5 km
500 to 1000 ft
800 to 1500m
200 to 500 ft
< 800m
< 200 ft
Symbols :   Thunderstorms  Fog  Heavy snow  Heavy precipitations  Wind > 20 kt






- Airport Elevation : 4858 ft
- IATA code : GJT


KGJT - Grand Junction Regional

CURRENT METAR :
  • 230653Z AUTO 00000KT 8SM HZ CLR 24/M02 A3012 RMK AO2 SLP117 T02441017 403440200

EXPIRED METARs :
  • 230553Z AUTO 35005KT 8SM HZ CLR 27/M02 A3011 RMK AO2 SLP114 T02671017 10344 20250 51013
  • 230453Z AUTO 36009KT 8SM HZ CLR 28/M02 A3010 RMK AO2 SLP110 T02781022
  • 230353Z AUTO 01007KT 8SM HZ CLR 28/M03 A3008 RMK AO2 SLP106 T02831028
  • 230253Z 32006KT 9SM HZ CLR 30/M03 A3006 RMK AO2 SLP098 T03001028 53004

TAF KGJT
Valid from the 23 at 06:00 until the 24 at 06:00 UTC


230520Z 2306/2406 02009KT P6SM SKC
FM230900 11007KT P6SM SKC
FM231600 15007KT P6SM SKC
FM232100 26007KT P6SM FEW120
FM240200 32005KT P6SM FEW140
KZDV FIR / North America



MET'MAP, your aeronautical weather chart ! - Copyright ORBIFLY December 2007 - Disclaimer

ORBIFLY MET'MAP TEAM :

Programming & Development : Alexandra Zaïnal
Original concept : Baudouin d'Aumeries
Technical & hardware support : Manuel Goepfert
Assistance : Marc-Olivier Méhu




SOURCES & CREDITS :

   NOAA       Earth
Advisory